createdAt,value
2017-01-30T00:00:37.838Z,24.3
2017-01-30T00:01:39.283Z,24.3
2017-01-30T00:02:39.598Z,24.3
2017-01-30T00:03:38.950Z,24.3
2017-01-30T00:04:39.085Z,24.3
2017-01-30T00:05:39.032Z,24.3
2017-01-30T00:06:39.140Z,24.3
2017-01-30T00:07:38.385Z,24.3
2017-01-30T00:08:39.245Z,24.3
2017-01-30T00:09:38.308Z,24.3
2017-01-30T00:10:39.950Z,24.3
2017-01-30T00:11:38.385Z,24.3
2017-01-30T00:12:38.437Z,24.3
2017-01-30T00:13:38.745Z,24.3
2017-01-30T00:14:38.498Z,24.3
2017-01-30T00:15:39.646Z,24.3
2017-01-30T00:16:38.737Z,24.3
2017-01-30T00:17:38.624Z,24.3
2017-01-30T00:18:38.734Z,24.3
2017-01-30T00:19:41.115Z,24.3
2017-01-30T00:20:38.924Z,24.3
2017-01-30T00:21:39.035Z,24.3
2017-01-30T00:22:40.111Z,24.3
2017-01-30T00:23:40.103Z,24.3
2017-01-30T00:24:39.123Z,24.3
2017-01-30T00:25:40.508Z,24.3
2017-01-30T00:26:39.188Z,24.3
2017-01-30T00:27:40.309Z,24.3
2017-01-30T00:28:40.340Z,24.3
2017-01-30T00:29:40.463Z,24.3
2017-01-30T00:30:40.531Z,24.3
2017-01-30T00:31:40.826Z,24.3
2017-01-30T00:32:40.635Z,24.3
2017-01-30T00:33:40.621Z,24.3
2017-01-30T00:34:40.671Z,24.3
2017-01-30T00:35:40.656Z,24.3
2017-01-30T00:36:39.689Z,24.3
2017-01-30T00:37:41.110Z,24.3
2017-01-30T00:38:40.835Z,24.3
2017-01-30T00:39:40.874Z,24.3
2017-01-30T00:40:42.185Z,24.3
2017-01-30T00:41:39.835Z,24.3
2017-01-30T00:42:39.929Z,24.3
2017-01-30T00:43:41.221Z,24.3
2017-01-30T00:44:39.969Z,24.3
2017-01-30T00:45:40.034Z,24.3
2017-01-30T00:46:40.108Z,24.3
2017-01-30T00:47:41.258Z,24.3
2017-01-30T00:48:41.323Z,24.3
2017-01-30T00:49:41.562Z,24.3
2017-01-30T00:50:41.278Z,24.3
2017-01-30T00:51:40.204Z,24.3
2017-01-30T00:52:40.267Z,24.3
2017-01-30T00:53:41.380Z,24.3
2017-01-30T00:54:40.412Z,24.3
2017-01-30T00:55:40.745Z,24.3
2017-01-30T00:56:40.492Z,24.3
2017-01-30T00:57:40.467Z,24.3
2017-01-30T00:58:41.617Z,24.3
2017-01-30T00:59:41.715Z,24.3
2017-01-30T01:00:41.755Z,24.3
2017-01-30T01:01:42.657Z,24.3
2017-01-30T01:02:42.065Z,24.3
2017-01-30T01:03:43.127Z,24.3
2017-01-30T01:04:41.940Z,24.3
2017-01-30T01:05:42.733Z,24.3
2017-01-30T01:06:40.965Z,24.3
2017-01-30T01:07:42.368Z,24.3
2017-01-30T01:08:41.129Z,24.3
2017-01-30T01:09:42.156Z,24.3
2017-01-30T01:10:42.204Z,24.3
2017-01-30T01:11:42.331Z,24.3
2017-01-30T01:12:42.336Z,24.3
2017-01-30T01:13:42.619Z,24.3
2017-01-30T01:14:41.292Z,24.3
2017-01-30T01:15:41.381Z,24.3
2017-01-30T01:16:42.084Z,24.3
2017-01-30T01:17:41.471Z,24.3
2017-01-30T01:18:42.539Z,24.3
2017-01-30T01:19:42.844Z,24.3
2017-01-30T01:20:42.624Z,24.3
2017-01-30T01:21:42.654Z,24.3
2017-01-30T01:22:41.545Z,24.3
2017-01-30T01:23:42.690Z,24.3
2017-01-30T01:24:42.804Z,24.3
2017-01-30T01:25:42.029Z,24.3
2017-01-30T01:26:42.918Z,24.3
2017-01-30T01:27:42.928Z,24.3
2017-01-30T01:28:41.854Z,24.3
2017-01-30T01:29:42.014Z,24.3
2017-01-30T01:30:41.902Z,24.3
2017-01-30T01:31:42.329Z,24.3
2017-01-30T01:32:43.096Z,24.3
2017-01-30T01:33:42.089Z,24.3
2017-01-30T01:34:43.219Z,24.3
2017-01-30T01:35:42.236Z,24.3
2017-01-30T01:36:42.267Z,24.3
2017-01-30T01:37:43.672Z,24.3
2017-01-30T01:38:43.342Z,24.3
2017-01-30T01:39:42.317Z,24.3
2017-01-30T01:40:43.509Z,24.3
2017-01-30T01:41:43.518Z,24.3
2017-01-30T01:42:42.598Z,24.3
2017-01-30T01:43:44.003Z,24.3
2017-01-30T01:44:42.687Z,24.3
2017-01-30T01:45:43.797Z,24.3
2017-01-30T01:46:43.863Z,24.3
2017-01-30T01:47:42.782Z,24.3
2017-01-30T01:48:42.820Z,24.3
2017-01-30T01:49:44.228Z,24.3
2017-01-30T01:50:43.873Z,24.3
2017-01-30T01:51:43.867Z,24.3
2017-01-30T01:52:43.954Z,24.3
2017-01-30T01:53:43.598Z,24.3
2017-01-30T01:54:43.995Z,24.3
2017-01-30T01:55:43.254Z,24.3
2017-01-30T01:56:43.065Z,24.3
2017-01-30T01:57:43.162Z,24.3
2017-01-30T01:58:44.291Z,24.3
2017-01-30T01:59:43.220Z,24.3
2017-01-30T02:00:43.337Z,24.3
2017-01-30T02:01:44.375Z,24.3
2017-01-30T02:02:44.469Z,24.3
2017-01-30T02:03:43.349Z,24.3
2017-01-30T02:04:43.368Z,24.3
2017-01-30T02:05:44.486Z,24.3
2017-01-30T02:06:43.516Z,24.3
2017-01-30T02:07:44.930Z,24.3
2017-01-30T02:08:44.600Z,24.3
2017-01-30T02:09:44.339Z,24.3
2017-01-30T02:10:43.686Z,24.3
2017-01-30T02:11:43.619Z,24.3
2017-01-30T02:12:43.736Z,24.3
2017-01-30T02:13:45.113Z,24.3
2017-01-30T02:14:44.932Z,24.3
2017-01-30T02:15:44.916Z,24.3
2017-01-30T02:16:43.857Z,24.3
2017-01-30T02:17:43.868Z,24.3
2017-01-30T02:18:45.006Z,24.3
2017-01-30T02:19:45.327Z,24.3
2017-01-30T02:20:44.150Z,24.3
2017-01-30T02:21:44.218Z,24.3
2017-01-30T02:22:45.358Z,24.3
2017-01-30T02:23:46.092Z,24.3
2017-01-30T02:24:45.490Z,24.3
2017-01-30T02:25:45.890Z,24.3
2017-01-30T02:26:44.391Z,24.3
2017-01-30T02:27:44.569Z,24.3
2017-01-30T02:28:45.625Z,24.3
2017-01-30T02:29:45.716Z,24.3
2017-01-30T02:30:44.632Z,24.3
2017-01-30T02:31:45.080Z,24.3
2017-01-30T02:32:44.852Z,24.3
2017-01-30T02:33:45.861Z,24.3
2017-01-30T02:34:44.948Z,24.3
2017-01-30T02:35:46.060Z,24.3
2017-01-30T02:36:46.129Z,24.3
2017-01-30T02:37:46.449Z,24.3
2017-01-30T02:38:46.334Z,24.3
2017-01-30T02:39:46.220Z,24.3
2017-01-30T02:40:46.344Z,24.3
2017-01-30T02:41:45.290Z,24.3
2017-01-30T02:42:45.478Z,24.3
2017-01-30T02:43:45.648Z,24.3
2017-01-30T02:44:45.366Z,24.3
2017-01-30T02:45:46.165Z,24.3
2017-01-30T02:46:45.517Z,24.3
2017-01-30T02:47:46.674Z,24.3
2017-01-30T02:48:45.724Z,24.3
2017-01-30T02:49:48.352Z,24.3
2017-01-30T02:50:46.888Z,24.4
2017-01-30T02:51:46.914Z,24.3
2017-01-30T02:52:46.355Z,24.3
2017-01-30T02:53:46.408Z,24.3
2017-01-30T02:54:46.928Z,24.4
2017-01-30T02:55:46.357Z,24.4
2017-01-30T02:56:47.112Z,24.3
2017-01-30T02:57:47.923Z,24.3
2017-01-30T02:58:47.815Z,24.4
2017-01-30T02:59:47.261Z,24.3
2017-01-30T03:00:46.193Z,24.3
2017-01-30T03:01:47.666Z,24.3
2017-01-30T03:02:46.242Z,24.4
2017-01-30T03:03:47.059Z,24.4
2017-01-30T03:04:47.700Z,24.4
2017-01-30T03:05:48.162Z,24.4
2017-01-30T03:06:47.636Z,24.4
2017-01-30T03:07:47.898Z,24.4
2017-01-30T03:08:47.191Z,24.4
2017-01-30T03:09:48.388Z,24.4
2017-01-30T03:10:46.785Z,24.4
2017-01-30T03:11:48.015Z,24.4
2017-01-30T03:12:46.872Z,24.4
2017-01-30T03:13:47.182Z,24.4
2017-01-30T03:14:49.409Z,24.4
2017-01-30T03:15:46.965Z,24.4
2017-01-30T03:16:48.069Z,24.4
2017-01-30T03:17:48.762Z,24.4
2017-01-30T03:18:48.284Z,24.4
2017-01-30T03:19:47.460Z,24.4
2017-01-30T03:20:48.318Z,24.4
2017-01-30T03:21:48.263Z,24.4
2017-01-30T03:22:47.357Z,24.4
2017-01-30T03:23:48.080Z,24.4
2017-01-30T03:24:48.441Z,24.4
2017-01-30T03:25:48.340Z,24.4
2017-01-30T03:26:47.543Z,24.4
2017-01-30T03:27:47.403Z,24.4
2017-01-30T03:28:48.570Z,24.4
2017-01-30T03:29:48.649Z,24.4
2017-01-30T03:30:47.574Z,24.4
2017-01-30T03:31:48.979Z,24.3
2017-01-30T03:32:49.659Z,24.3
2017-01-30T03:33:48.878Z,24.4
2017-01-30T03:34:48.010Z,24.4
2017-01-30T03:35:48.876Z,24.4
2017-01-30T03:36:48.884Z,24.4
2017-01-30T03:37:48.324Z,24.3
2017-01-30T03:38:49.014Z,24.3
2017-01-30T03:39:47.979Z,24.3
2017-01-30T03:40:48.028Z,24.4
2017-01-30T03:41:49.252Z,24.4
2017-01-30T03:42:48.719Z,24.4
2017-01-30T03:43:48.346Z,24.3
2017-01-30T03:44:48.158Z,24.4
2017-01-30T03:45:48.165Z,24.3
2017-01-30T03:46:48.194Z,24.3
2017-01-30T03:47:48.387Z,24.3
2017-01-30T03:48:49.312Z,24.4
2017-01-30T03:49:49.713Z,24.3
2017-01-30T03:50:48.396Z,24.3
2017-01-30T03:51:48.456Z,24.3
2017-01-30T03:52:49.557Z,24.3
2017-01-30T03:53:49.626Z,24.3
2017-01-30T03:54:49.673Z,24.3
2017-01-30T03:55:48.962Z,24.3
2017-01-30T03:56:48.736Z,24.3
2017-01-30T03:57:48.736Z,24.3
2017-01-30T03:58:49.893Z,24.3
2017-01-30T03:59:49.939Z,24.4
2017-01-30T04:00:50.587Z,24.4
2017-01-30T04:01:49.253Z,24.3
2017-01-30T04:02:49.023Z,24.4
2017-01-30T04:03:49.001Z,24.4
2017-01-30T04:04:49.172Z,24.4
2017-01-30T04:05:50.279Z,24.4
2017-01-30T04:06:49.903Z,24.4
2017-01-30T04:07:50.657Z,24.3
2017-01-30T04:08:50.348Z,24.3
2017-01-30T04:09:50.354Z,24.4
2017-01-30T04:10:49.371Z,24.3
2017-01-30T04:11:50.480Z,24.3
2017-01-30T04:12:50.633Z,24.4
2017-01-30T04:13:49.873Z,24.4
2017-01-30T04:14:49.626Z,24.3
2017-01-30T04:15:49.675Z,24.3
2017-01-30T04:16:49.739Z,24.4
2017-01-30T04:17:50.799Z,24.3
2017-01-30T04:18:49.819Z,24.3
2017-01-30T04:19:51.173Z,24.3
2017-01-30T04:20:49.881Z,24.3
2017-01-30T04:21:49.952Z,24.3
2017-01-30T04:22:52.346Z,24.4
2017-01-30T04:23:51.006Z,24.3
2017-01-30T04:24:50.588Z,24.3
2017-01-30T04:25:51.028Z,24.4
2017-01-30T04:26:51.885Z,24.4
2017-01-30T04:27:50.147Z,24.4
2017-01-30T04:28:51.864Z,24.4
2017-01-30T04:29:51.167Z,24.4
2017-01-30T04:30:51.184Z,24.4
2017-01-30T04:31:51.493Z,24.4
2017-01-30T04:32:50.226Z,24.4
2017-01-30T04:33:51.369Z,24.4
2017-01-30T04:34:50.487Z,24.4
2017-01-30T04:35:50.528Z,24.4
2017-01-30T04:36:51.703Z,24.4
2017-01-30T04:37:50.906Z,24.4
2017-01-30T04:38:50.591Z,24.4
2017-01-30T04:39:51.904Z,24.4
2017-01-30T04:40:50.649Z,24.4
2017-01-30T04:41:51.833Z,24.4
2017-01-30T04:42:50.749Z,24.4
2017-01-30T04:43:52.748Z,24.4
2017-01-30T04:44:51.856Z,24.4
2017-01-30T04:45:51.870Z,24.4
2017-01-30T04:46:50.850Z,24.4
2017-01-30T04:47:51.922Z,24.4
2017-01-30T04:48:50.952Z,24.4
2017-01-30T04:49:51.967Z,24.4
2017-01-30T04:50:51.070Z,24.4
2017-01-30T04:51:51.138Z,24.4
2017-01-30T04:52:52.222Z,24.4
2017-01-30T04:53:52.913Z,24.4
2017-01-30T04:54:52.362Z,24.4
2017-01-30T04:55:52.645Z,24.4
2017-01-30T04:56:51.544Z,24.4
2017-01-30T04:57:53.172Z,24.4
2017-01-30T04:58:51.495Z,24.4
2017-01-30T04:59:52.720Z,24.4
2017-01-30T05:00:52.567Z,24.4
2017-01-30T05:01:52.926Z,24.4
2017-01-30T05:02:51.543Z,24.4
2017-01-30T05:03:51.612Z,24.4
2017-01-30T05:04:51.595Z,24.4
2017-01-30T05:05:52.714Z,24.4
2017-01-30T05:06:52.835Z,24.4
2017-01-30T05:07:53.080Z,24.4
2017-01-30T05:08:51.856Z,24.4
2017-01-30T05:09:53.017Z,24.4
2017-01-30T05:10:53.078Z,24.4
2017-01-30T05:11:53.033Z,24.4
2017-01-30T05:12:52.014Z,24.4
2017-01-30T05:13:53.460Z,24.4
2017-01-30T05:14:53.230Z,24.4
2017-01-30T05:15:53.183Z,24.4
2017-01-30T05:16:52.193Z,24.4
2017-01-30T05:17:53.275Z,24.4
2017-01-30T05:18:52.277Z,24.4
2017-01-30T05:19:53.638Z,24.4
2017-01-30T05:20:52.912Z,24.4
2017-01-30T05:21:53.083Z,24.4
2017-01-30T05:22:53.556Z,24.4
2017-01-30T05:23:52.538Z,24.4
2017-01-30T05:24:52.550Z,24.4
2017-01-30T05:25:54.020Z,24.4
2017-01-30T05:26:53.800Z,24.4
2017-01-30T05:27:52.736Z,24.4
2017-01-30T05:28:53.843Z,24.4
2017-01-30T05:29:53.856Z,24.4
2017-01-30T05:30:53.963Z,24.4
2017-01-30T05:31:54.215Z,24.4
2017-01-30T05:32:52.942Z,24.4
2017-01-30T05:33:52.998Z,24.4
2017-01-30T05:34:53.032Z,24.4
2017-01-30T05:35:53.112Z,24.4
2017-01-30T05:36:53.289Z,24.4
2017-01-30T05:37:54.350Z,24.4
2017-01-30T05:38:53.415Z,24.5
2017-01-30T05:39:53.449Z,24.5
2017-01-30T05:40:53.425Z,24.5
2017-01-30T05:41:53.451Z,24.6
2017-01-30T05:42:53.608Z,24.7
2017-01-30T05:43:53.842Z,24.7
2017-01-30T05:44:53.590Z,24.7
2017-01-30T05:45:53.747Z,24.7
2017-01-30T05:46:54.811Z,24.7
2017-01-30T05:47:54.886Z,24.8
2017-01-30T05:48:53.962Z,24.8
2017-01-30T05:49:55.341Z,24.9
2017-01-30T05:50:55.090Z,25
2017-01-30T05:51:55.010Z,25.1
2017-01-30T05:52:54.099Z,25.2
2017-01-30T05:53:54.143Z,25.4
2017-01-30T05:54:54.206Z,25.5
2017-01-30T05:55:55.480Z,25.6
2017-01-30T05:56:55.407Z,25.6
2017-01-30T05:57:54.329Z,25.7
2017-01-30T05:58:54.379Z,25.8
2017-01-30T05:59:54.406Z,25.8
2017-01-30T06:00:55.579Z,25.9
2017-01-30T06:01:55.284Z,25.9
2017-01-30T06:02:55.524Z,26
2017-01-30T06:03:54.667Z,26
2017-01-30T06:04:56.206Z,26.1
2017-01-30T06:05:55.703Z,26.1
2017-01-30T06:06:55.893Z,26.1
2017-01-30T06:07:56.815Z,26.2
2017-01-30T06:08:54.766Z,26.2
2017-01-30T06:09:55.859Z,26.3
2017-01-30T06:10:54.817Z,26.3
2017-01-30T06:11:54.876Z,26.4
2017-01-30T06:12:54.920Z,26.4
2017-01-30T06:13:56.296Z,26.5
2017-01-30T06:14:55.965Z,26.5
2017-01-30T06:15:56.118Z,26.5
2017-01-30T06:16:55.059Z,26.5
2017-01-30T06:17:56.852Z,26.5
2017-01-30T06:18:58.328Z,26.5
2017-01-30T06:19:56.544Z,26.5
2017-01-30T06:20:55.215Z,26.5
2017-01-30T06:21:56.358Z,26.5
2017-01-30T06:22:56.411Z,26.5
2017-01-30T06:23:56.092Z,26.4
2017-01-30T06:24:56.565Z,26.5
2017-01-30T06:25:57.226Z,26.5
2017-01-30T06:26:56.713Z,26.5
2017-01-30T06:27:56.806Z,26.5
2017-01-30T06:28:55.667Z,26.5
2017-01-30T06:29:56.760Z,26.6
2017-01-30T06:30:56.353Z,26.7
2017-01-30T06:31:55.966Z,26.7
2017-01-30T06:32:56.983Z,26.7
2017-01-30T06:33:57.030Z,26.7
2017-01-30T06:34:56.053Z,26.7
2017-01-30T06:35:57.167Z,26.7
2017-01-30T06:36:57.225Z,26.7
2017-01-30T06:37:56.248Z,26.7
2017-01-30T06:38:57.792Z,26.8
2017-01-30T06:39:57.787Z,26.8
2017-01-30T06:40:56.783Z,26.8
2017-01-30T06:41:57.093Z,26.8
2017-01-30T06:42:57.677Z,26.9
2017-01-30T06:43:56.681Z,26.9
2017-01-30T06:44:58.590Z,27
2017-01-30T06:45:57.470Z,27
2017-01-30T06:46:57.900Z,27
2017-01-30T06:47:58.342Z,27
2017-01-30T06:48:58.068Z,27.1
2017-01-30T06:49:59.722Z,27.1
2017-01-30T06:50:57.583Z,27.1
2017-01-30T06:53:01.918Z,27.2
2017-01-30T06:54:00.265Z,27.2
2017-01-30T06:55:01.379Z,27.2
2017-01-30T06:56:00.195Z,27.3
2017-01-30T06:56:58.882Z,27.4
2017-01-30T06:57:59.657Z,27.4
2017-01-30T06:58:58.082Z,27.3
2017-01-30T06:59:59.648Z,27.3
2017-01-30T07:01:07.615Z,27.3
2017-01-30T07:01:58.801Z,27.3
2017-01-30T07:03:04.368Z,27.3
2017-01-30T07:04:03.961Z,27.4
2017-01-30T07:05:02.128Z,27.4
2017-01-30T07:05:59.559Z,27.4
2017-01-30T07:07:03.558Z,27.3
2017-01-30T07:08:01.640Z,27.3
2017-01-30T07:09:01.299Z,27.3
2017-01-30T07:10:00.889Z,27.3
2017-01-30T07:11:01.111Z,27.3
2017-01-30T07:12:06.108Z,27.3
2017-01-30T07:13:04.510Z,27.2
2017-01-30T07:14:01.376Z,27.2
2017-01-30T07:15:04.042Z,27.2
2017-01-30T07:16:05.496Z,27.1
2017-01-30T07:17:02.050Z,27.1
2017-01-30T07:17:59.648Z,27.1
2017-01-30T07:19:02.161Z,27.1
2017-01-30T07:20:02.952Z,27
2017-01-30T07:21:00.619Z,27
2017-01-30T07:22:02.324Z,26.9
2017-01-30T07:23:03.921Z,26.9
2017-01-30T07:24:00.006Z,26.9
2017-01-30T07:25:00.624Z,26.8
2017-01-30T07:26:00.713Z,26.8
2017-01-30T07:27:00.141Z,26.8
2017-01-30T07:28:01.886Z,26.7
2017-01-30T07:29:02.135Z,26.7
2017-01-30T07:30:02.785Z,26.7
2017-01-30T07:31:00.391Z,26.7
2017-01-30T07:32:00.939Z,26.6
2017-01-30T07:32:59.812Z,26.6
2017-01-30T07:34:00.053Z,26.6
2017-01-30T07:35:02.088Z,26.6
2017-01-30T07:36:02.960Z,26.5
2017-01-30T07:37:01.519Z,26.5
2017-01-30T07:38:02.084Z,26.5
2017-01-30T07:39:01.007Z,26.5
2017-01-30T07:40:04.983Z,26.5
2017-01-30T07:41:02.585Z,26.5
2017-01-30T07:42:01.807Z,26.5
2017-01-30T07:43:03.117Z,26.5
2017-01-30T07:44:03.457Z,26.4
2017-01-30T07:45:04.256Z,26.5
2017-01-30T07:46:00.986Z,26.5
2017-01-30T07:47:03.976Z,26.4
2017-01-30T07:48:00.858Z,26.4
2017-01-30T07:49:02.261Z,26.4
2017-01-30T07:50:02.427Z,26.4
2017-01-30T07:51:01.475Z,26.4
2017-01-30T07:52:02.018Z,26.4
2017-01-30T07:53:01.938Z,26.4
2017-01-30T07:54:02.977Z,26.4
2017-01-30T07:55:06.320Z,26.4
2017-01-30T07:56:02.265Z,26.4
2017-01-30T07:57:06.813Z,26.4
2017-01-30T07:58:02.186Z,26.4
2017-01-30T07:59:01.844Z,26.4
2017-01-30T08:00:05.438Z,26.4
2017-01-30T08:01:03.726Z,26.4
2017-01-30T08:02:01.993Z,26.4
2017-01-30T08:03:03.109Z,26.4
2017-01-30T08:04:10.012Z,26.4
2017-01-30T08:05:05.065Z,26.4
2017-01-30T08:06:03.897Z,26.4
2017-01-30T08:07:03.908Z,26.4
2017-01-30T08:08:03.752Z,26.4
2017-01-30T08:09:04.190Z,26.4
2017-01-30T08:10:04.467Z,26.4
2017-01-30T08:11:07.124Z,26.4
2017-01-30T08:12:03.333Z,26.4
2017-01-30T08:13:06.809Z,26.4
2017-01-30T08:14:06.380Z,26.4
2017-01-30T08:15:04.889Z,26.4
2017-01-30T08:16:06.681Z,26.4
2017-01-30T08:17:03.008Z,26.4
2017-01-30T08:18:03.056Z,26.4
2017-01-30T08:19:04.451Z,26.5
2017-01-30T08:20:04.826Z,26.5
2017-01-30T08:21:05.186Z,26.5
2017-01-30T08:22:05.214Z,26.6
2017-01-30T08:23:06.875Z,26.6
2017-01-30T08:24:04.534Z,26.6
2017-01-30T08:25:07.531Z,26.6
2017-01-30T08:26:04.741Z,26.7
2017-01-30T08:27:04.184Z,26.7
2017-01-30T08:28:04.247Z,26.7
2017-01-30T08:29:08.571Z,26.8
2017-01-30T08:30:04.854Z,26.8
2017-01-30T08:31:05.949Z,26.9
2017-01-30T08:32:04.282Z,26.9
2017-01-30T08:33:07.909Z,26.9
2017-01-30T08:34:08.039Z,26.9
2017-01-30T08:35:05.143Z,26.9
2017-01-30T08:36:08.288Z,27
2017-01-30T08:37:08.702Z,27
2017-01-30T08:38:06.798Z,27
2017-01-30T08:39:07.351Z,27
2017-01-30T08:40:06.123Z,27.1
2017-01-30T08:41:06.816Z,27.1
2017-01-30T08:42:06.425Z,27.1
2017-01-30T08:43:06.424Z,27.1
2017-01-30T08:44:06.290Z,27.2
2017-01-30T08:46:08.559Z,27.3
2017-01-30T08:47:07.001Z,27.3
2017-01-30T08:48:05.949Z,27.3
2017-01-30T08:49:05.921Z,27.3
2017-01-30T08:50:04.137Z,27.3
2017-01-30T08:51:04.843Z,27.3
2017-01-30T08:52:07.108Z,27.3
2017-01-30T08:53:05.120Z,27.3
2017-01-30T08:54:10.799Z,27.3
2017-01-30T08:55:06.247Z,27.3
2017-01-30T08:56:06.977Z,27.3
2017-01-30T08:57:08.732Z,27.4
2017-01-30T08:58:08.615Z,27.4
2017-01-30T08:59:10.677Z,27.4
2017-01-30T09:00:16.040Z,27.4
2017-01-30T09:01:09.530Z,27.4
2017-01-30T09:02:07.750Z,27.4
2017-01-30T09:03:08.331Z,27.4
2017-01-30T09:04:15.882Z,27.4
2017-01-30T09:05:10.816Z,27.4
2017-01-30T09:06:08.985Z,27.3
2017-01-30T09:07:08.141Z,27.3
2017-01-30T09:08:11.694Z,27.4
2017-01-30T09:09:07.571Z,27.4
2017-01-30T09:10:12.107Z,27.3
2017-01-30T09:11:08.531Z,27.3
2017-01-30T09:12:05.781Z,27.3
2017-01-30T09:13:06.684Z,27.3
2017-01-30T09:14:07.344Z,27.3
2017-01-30T09:15:07.133Z,27.3
2017-01-30T09:16:10.983Z,27.3
2017-01-30T09:17:05.784Z,27.4
2017-01-30T09:18:08.227Z,27.7
2017-01-30T09:19:11.791Z,27.7
2017-01-30T09:20:10.664Z,27.6
2017-01-30T09:21:08.814Z,27.6
2017-01-30T09:22:09.286Z,27.5
2017-01-30T09:23:08.371Z,27.5
2017-01-30T09:24:13.627Z,27.5
2017-01-30T09:25:09.340Z,27.5
2017-01-30T09:26:08.796Z,27.5
2017-01-30T09:27:08.422Z,27.5
2017-01-30T09:28:12.275Z,27.6
2017-01-30T09:29:06.034Z,27.6
2017-01-30T09:30:11.013Z,27.6
2017-01-30T09:31:10.427Z,27.6
2017-01-30T09:32:09.122Z,27.6
2017-01-30T09:33:10.663Z,27.6
2017-01-30T09:34:07.703Z,27.6
2017-01-30T09:35:08.141Z,27.6
2017-01-30T09:36:08.722Z,27.6
2017-01-30T09:37:09.774Z,27.6
2017-01-30T09:38:08.711Z,27.5
2017-01-30T09:39:08.248Z,27.5
2017-01-30T09:40:09.821Z,27.5
2017-01-30T09:41:08.266Z,27.5
2017-01-30T09:42:11.694Z,27.5
2017-01-30T09:43:09.643Z,27.5
2017-01-30T09:44:08.194Z,27.5
2017-01-30T09:45:10.617Z,27.4
2017-01-30T09:46:10.658Z,27.4
2017-01-30T09:47:11.268Z,27.4
2017-01-30T09:48:08.379Z,27.4
2017-01-30T09:49:10.916Z,27.5
2017-01-30T09:50:13.050Z,27.5
2017-01-30T09:51:11.066Z,27.4
2017-01-30T09:52:07.835Z,27.4
2017-01-30T09:53:10.218Z,27.4
2017-01-30T09:54:07.998Z,27.4
2017-01-30T10:02:09.764Z,27.3
2017-01-30T10:02:19.608Z,27.6
2017-01-30T10:03:21.546Z,27.7
2017-01-30T10:04:20.357Z,27.7
2017-01-30T10:05:18.467Z,27.7
2017-01-30T10:06:23.224Z,27.7
2017-01-30T10:07:23.562Z,27.7
2017-01-30T10:08:20.765Z,27.7
2017-01-30T10:10:18.372Z,27.7
2017-01-30T10:11:19.508Z,27.7
2017-01-30T10:12:18.406Z,27.7
2017-01-30T10:13:18.647Z,27.7
2017-01-30T10:14:18.592Z,27.7
2017-01-30T10:15:20.269Z,27.7
2017-01-30T10:16:18.730Z,27.8
2017-01-30T10:17:19.094Z,27.7
2017-01-30T10:18:19.921Z,27.8
2017-01-30T10:19:18.768Z,27.7
2017-01-30T10:20:19.956Z,27.8
2017-01-30T10:21:21.097Z,27.8
2017-01-30T10:22:20.168Z,27.8
2017-01-30T10:23:20.175Z,27.8
2017-01-30T10:24:21.226Z,27.8
2017-01-30T10:25:21.119Z,27.8
2017-01-30T10:26:21.006Z,27.8
2017-01-30T10:27:20.414Z,27.8
2017-01-30T10:28:19.396Z,27.8
2017-01-30T10:29:21.069Z,27.7
2017-01-30T10:30:19.368Z,27.7
2017-01-30T10:31:19.388Z,27.7
2017-01-30T10:32:19.504Z,27.7
2017-01-30T10:33:19.584Z,27.7
2017-01-30T10:34:20.769Z,27.7
2017-01-30T10:35:19.780Z,27.7
2017-01-30T10:36:21.442Z,27.7
2017-01-30T10:37:20.852Z,27.7
2017-01-30T10:38:19.810Z,27.7
2017-01-30T10:39:21.251Z,27.7
2017-01-30T10:40:21.058Z,27.7
2017-01-30T10:41:20.721Z,27.7
2017-01-30T10:42:21.222Z,27.7
2017-01-30T10:43:20.195Z,27.7
2017-01-30T10:44:20.259Z,27.7
2017-01-30T10:45:21.932Z,27.7
2017-01-30T10:46:22.016Z,27.7
2017-01-30T10:47:21.081Z,27.7
2017-01-30T10:48:21.449Z,27.7
2017-01-30T10:49:21.592Z,27.7
2017-01-30T10:50:21.181Z,27.8
2017-01-30T10:51:20.523Z,27.7
2017-01-30T10:52:20.555Z,27.7
2017-01-30T10:53:20.578Z,27.7
2017-01-30T10:54:22.348Z,27.7
2017-01-30T10:55:21.913Z,27.7
2017-01-30T10:56:21.892Z,27.7
2017-01-30T10:57:20.799Z,27.7
2017-01-30T10:58:21.880Z,27.8
2017-01-30T10:59:22.067Z,27.8
2017-01-30T11:00:21.092Z,27.8
2017-01-30T11:01:21.117Z,27.8
2017-01-30T11:02:21.594Z,27.8
2017-01-30T11:03:22.687Z,27.8
2017-01-30T11:04:22.193Z,27.9
2017-01-30T11:05:22.227Z,27.9
2017-01-30T11:06:22.275Z,27.9
2017-01-30T11:07:22.392Z,27.8
2017-01-30T11:08:22.490Z,27.8
2017-01-30T11:09:22.490Z,27.8
2017-01-30T11:10:22.529Z,27.8
2017-01-30T11:11:22.573Z,27.8
2017-01-30T11:12:22.099Z,27.8
2017-01-30T11:13:21.551Z,27.8
2017-01-30T11:14:22.619Z,27.8
2017-01-30T11:15:23.348Z,27.8
2017-01-30T11:16:24.265Z,27.8
2017-01-30T11:17:21.682Z,27.8
2017-01-30T11:18:22.444Z,27.9
2017-01-30T11:19:22.920Z,27.9
2017-01-30T11:20:21.962Z,27.9
2017-01-30T11:21:21.886Z,27.9
2017-01-30T11:22:23.748Z,27.9
2017-01-30T11:23:23.085Z,27.9
2017-01-30T11:24:23.169Z,27.9
2017-01-30T11:25:22.203Z,28
2017-01-30T11:26:22.192Z,28
2017-01-30T11:27:22.929Z,28
2017-01-30T11:28:23.031Z,28
2017-01-30T11:29:22.502Z,28
2017-01-30T11:30:24.245Z,28
2017-01-30T11:31:23.041Z,28
2017-01-30T11:32:23.843Z,28
2017-01-30T11:33:24.099Z,28.1
2017-01-30T11:34:22.647Z,28.1
2017-01-30T11:35:22.716Z,28.1
2017-01-30T11:36:23.812Z,28.1
2017-01-30T11:37:22.941Z,28.1
2017-01-30T11:38:23.489Z,28.1
2017-01-30T11:39:23.488Z,28.1
2017-01-30T11:40:22.912Z,28.1
2017-01-30T11:41:24.125Z,28.1
2017-01-30T11:42:24.450Z,28.1
2017-01-30T11:43:23.052Z,28.1
2017-01-30T11:44:23.126Z,28.2
2017-01-30T11:45:23.110Z,28.2
2017-01-30T11:46:24.337Z,28.2
2017-01-30T11:47:25.488Z,28.2
2017-01-30T11:48:23.878Z,28.2
2017-01-30T11:49:27.153Z,28.2
2017-01-30T11:50:23.365Z,28.2
2017-01-30T11:51:23.387Z,28.2
2017-01-30T11:52:24.080Z,28.2
2017-01-30T11:53:24.624Z,28.2
2017-01-30T11:54:23.648Z,28.2
2017-01-30T11:55:23.681Z,28.2
2017-01-30T11:56:26.532Z,28.2
2017-01-30T11:57:23.814Z,28.2
2017-01-30T11:58:23.907Z,28.2
2017-01-30T11:59:25.416Z,28.2
2017-01-30T12:00:23.861Z,28.2
2017-01-30T12:01:24.707Z,28.2
2017-01-30T12:02:26.258Z,28.2
2017-01-30T12:03:25.856Z,28.3
2017-01-30T12:04:25.186Z,28.3
2017-01-30T12:05:25.800Z,28.3
2017-01-30T12:06:24.345Z,28.3
2017-01-30T12:07:24.410Z,28.3
2017-01-30T12:08:26.764Z,28.3
2017-01-30T12:09:25.131Z,28.3
2017-01-30T12:10:25.673Z,28.2
2017-01-30T12:11:25.840Z,28.2
2017-01-30T12:12:25.445Z,28.2
2017-01-30T12:13:25.766Z,28.2
2017-01-30T12:14:25.761Z,28.2
2017-01-30T12:15:26.252Z,28.1
2017-01-30T12:16:26.607Z,28.1
2017-01-30T12:17:26.603Z,28
2017-01-30T12:18:26.527Z,28
2017-01-30T12:19:25.770Z,28
2017-01-30T12:20:27.418Z,28
2017-01-30T12:21:25.240Z,27.9
2017-01-30T12:22:26.494Z,27.9
2017-01-30T12:23:28.279Z,27.9
2017-01-30T12:24:28.187Z,27.9
2017-01-30T12:25:30.342Z,27.9
2017-01-30T12:26:26.400Z,27.9
2017-01-30T12:27:26.562Z,27.8
2017-01-30T12:28:31.452Z,27.8
2017-01-30T12:29:31.091Z,27.8
2017-01-30T12:30:30.356Z,27.8
2017-01-30T12:31:25.653Z,27.7
2017-01-30T12:32:28.837Z,27.7
2017-01-30T12:33:27.469Z,27.7
2017-01-30T12:34:30.040Z,27.7
2017-01-30T12:35:27.160Z,27.7
2017-01-30T12:36:26.933Z,27.7
2017-01-30T12:37:31.299Z,27.7
2017-01-30T12:38:37.767Z,27.7
2017-01-30T12:39:27.283Z,27.7
2017-01-30T12:40:30.126Z,27.7
2017-01-30T12:41:28.586Z,27.7
2017-01-30T12:42:29.183Z,27.7
2017-01-30T12:43:32.890Z,27.6
2017-01-30T12:44:38.885Z,27.6
2017-01-30T12:45:31.190Z,27.6
2017-01-30T12:46:34.279Z,27.6
2017-01-30T12:47:40.325Z,27.6
2017-01-30T12:48:40.109Z,27.6
2017-01-30T12:49:36.748Z,27.6
2017-01-30T12:50:42.848Z,27.6
2017-01-30T12:52:40.961Z,27.5
2017-01-30T12:54:39.097Z,27.3
2017-01-30T12:55:43.530Z,27.2
2017-01-30T12:56:32.149Z,27.1
2017-01-30T12:57:37.547Z,27
2017-01-30T12:58:39.786Z,27
2017-01-30T13:00:40.810Z,27.1
2017-01-30T13:01:37.704Z,27.1
2017-01-30T13:03:33.314Z,27.2
2017-01-30T13:04:37.441Z,27.2
2017-01-30T13:05:40.605Z,27.2
2017-01-30T13:07:33.794Z,27.1
2017-01-30T13:08:32.745Z,27.2
2017-01-30T13:09:32.766Z,27.2
2017-01-30T13:10:36.456Z,27.2
2017-01-30T13:11:37.602Z,27.2
2017-01-30T13:12:37.504Z,27.3
2017-01-30T13:13:31.992Z,27.3
2017-01-30T13:14:32.961Z,27.3
2017-01-30T13:15:32.193Z,27.3
2017-01-30T13:16:32.385Z,27.4
2017-01-30T13:17:27.959Z,27.4
2017-01-30T13:18:31.638Z,27.4
2017-01-30T13:19:31.805Z,27.4
2017-01-30T13:20:29.572Z,27.4
2017-01-30T13:21:30.254Z,27.4
2017-01-30T13:22:29.925Z,27.4
2017-01-30T13:23:38.219Z,27.4
2017-01-30T13:24:32.270Z,27.4
2017-01-30T13:25:29.448Z,27.4
2017-01-30T13:26:33.974Z,27.4
2017-01-30T13:27:29.582Z,27.4
2017-01-30T13:28:32.973Z,27.4
2017-01-30T13:29:32.704Z,27.4
2017-01-30T13:30:30.447Z,27.4
2017-01-30T13:31:35.337Z,27.4
2017-01-30T13:32:30.508Z,27.4
2017-01-30T13:33:34.531Z,27.4
2017-01-30T13:34:32.854Z,27.4
2017-01-30T13:35:37.081Z,27.4